Погода Саткхирана неделю

Кхулна, Бангладеш

20 - 26 апреля
  • 20апреля
    Сегодня
    +28°
    +41°
    Ясно и безоблачно
    ВремяПогодаТемператураВлажностьДавлениеВетер, м/сВероятность осадков
    00:00Ясно и безоблачно+30°C87 %750 мм1.0 м/с2 %
    03:00Ясно и безоблачно+30°C86 %749 мм4.5 м/с2 %
    06:00Ясно и безоблачно+29°C91 %750 мм0.6 м/с2 %
    09:00Ясно и безоблачно+33°C69 %752 мм0.7 м/с2 %
    12:00Ясно и безоблачно+38°C38 %751 мм1.2 м/с2 %
    15:00Ясно и безоблачно+40°C25 %749 мм0.8 м/с2 %
    18:00Ясно и безоблачно+36°C44 %748 мм0.5 м/с2 %
    21:00Ясно и безоблачно+32°C77 %750 мм0.7 м/с2 %
  • 21апреля
    Воскресенье
    +29°
    +41°
    Ясно и безоблачно
    ВремяПогодаТемператураВлажностьДавлениеВетер, м/сВероятность осадков
    00:00Ясно и безоблачно+31°C82 %750 мм1.0 м/с2 %
    03:00Ясно и безоблачно+30°C84 %749 мм3.5 м/с2 %
    06:00Ясно и безоблачно+29°C92 %751 мм0.3 м/с2 %
    09:00Ясно и безоблачно+34°C64 %753 мм0.4 м/с2 %
    12:00Ясно и безоблачно+38°C29 %752 мм0.5 м/с2 %
    15:00Ясно и безоблачно+40°C26 %750 мм0.3 м/с2 %
    18:00Ясно и безоблачно+36°C42 %750 мм0.1 м/с2 %
    21:00Практически безоблачно+32°C66 %752 мм0.7 м/с2 %
  • 22апреля
    Понедельник
    +28°
    +40°
    Облачно с прояснениями
    ВремяПогодаТемператураВлажностьДавлениеВетер, м/сВероятность осадков
    00:00Облачно с прояснениями+31°C80 %752 мм0.7 м/с2 %
    03:00Ясно и безоблачно+30°C87 %751 мм2.6 м/с2 %
    06:00Практически безоблачно+29°C93 %752 мм0.3 м/с2 %
    09:00Облачно с прояснениями+34°C69 %754 мм0.4 м/с2 %
    12:00Небольшая облачность+38°C34 %753 мм0.7 м/с2 %
    15:00Облачно с прояснениями+40°C25 %751 мм0.3 м/с2 %
    18:00Облачно с прояснениями+36°C44 %751 мм0.0 м/с2 %
    21:00Облачно с прояснениями+31°C48 %753 мм0.3 м/с4 %
  • 23апреля
    Вторник
    +28°
    +41°
    Ясно и безоблачно
    ВремяПогодаТемператураВлажностьДавлениеВетер, м/сВероятность осадков
    00:00Пасмурно, сплошная облачность+31°C50 %753 мм0.5 м/с3 %
    03:00Практически безоблачно+29°C43 %751 мм2.6 м/с2 %
    06:00Ясно и безоблачно+29°C51 %752 мм0.1 м/с2 %
    09:00Ясно и безоблачно+34°C41 %753 мм0.3 м/с2 %
    12:00Практически безоблачно+38°C32 %753 мм0.8 м/с2 %
    15:00Ясно и безоблачно+40°C28 %751 мм0.5 м/с2 %
    18:00Ясно и безоблачно+36°C51 %750 мм0.0 м/с2 %
    21:00Ясно и безоблачно+32°C47 %752 мм0.5 м/с2 %
  • 24апреля
    Среда
    +28°
    +41°
    Практически безоблачно
    ВремяПогодаТемператураВлажностьДавлениеВетер, м/сВероятность осадков
    00:00Ясно и безоблачно+31°C56 %752 мм0.8 м/с2 %
    03:00Ясно и безоблачно+30°C67 %751 мм4.1 м/с2 %
    06:00Ясно и безоблачно+29°C80 %752 мм0.3 м/с2 %
    09:00Ясно и безоблачно+34°C63 %753 мм0.6 м/с2 %
    12:00Ясно и безоблачно+39°C38 %752 мм0.8 м/с2 %
    15:00Практически безоблачно+41°C25 %750 мм0.5 м/с4 %
    18:00Ясно и безоблачно+37°C44 %750 мм0.1 м/с2 %
    21:00Ясно и безоблачно+32°C63 %752 мм0.6 м/с2 %
Мы используем cookies
Соглашаюсь